createdAt,value
2023-02-16T00:02:00.512Z,13.80
2023-02-16T00:04:31.004Z,9.50
2023-02-16T00:06:59.238Z,8.20
2023-02-16T00:09:27.732Z,12.40
2023-02-16T00:12:14.541Z,11.20
2023-02-16T00:14:44.813Z,10.20
2023-02-16T00:17:13.322Z,11.10
2023-02-16T00:19:42.187Z,13.80
2023-02-16T00:22:11.624Z,8.20
2023-02-16T00:24:39.796Z,12.30
2023-02-16T00:27:13.384Z,8.80
2023-02-16T00:29:44.063Z,11.90
2023-02-16T00:32:14.889Z,7.00
2023-02-16T00:34:54.532Z,10.60
2023-02-16T00:37:23.764Z,7.60
2023-02-16T00:39:51.778Z,9.80
2023-02-16T00:42:21.371Z,9.20
2023-02-16T00:44:51.458Z,7.20
2023-02-16T00:47:31.069Z,9.30
2023-02-16T00:49:59.303Z,7.60
2023-02-16T00:52:35.432Z,8.40
2023-02-16T00:55:06.759Z,6.90
2023-02-16T00:57:43.558Z,11.50
2023-02-16T01:00:36.431Z,6.80
2023-02-16T01:03:14.753Z,11.20
2023-02-16T01:05:43.386Z,7.30
2023-02-16T01:08:33.203Z,8.60
2023-02-16T01:11:10.293Z,10.20
2023-02-16T01:16:14.625Z,9.60
2023-02-16T01:18:42.722Z,10.50
2023-02-16T01:21:11.077Z,9.50
2023-02-16T01:23:39.350Z,9.90
2023-02-16T01:26:17.331Z,7.60
2023-02-16T01:28:47.961Z,9.90
2023-02-16T01:33:46.786Z,9.20
2023-02-16T01:36:37.007Z,8.80
2023-02-16T01:39:07.976Z,10.20
2023-02-16T01:42:05.697Z,10.20
2023-02-16T01:44:51.647Z,7.60
2023-02-16T01:47:22.451Z,7.50
2023-02-16T01:49:50.476Z,9.20
2023-02-16T01:52:31.133Z,9.60
2023-02-16T01:55:01.793Z,6.90
2023-02-16T01:57:34.669Z,9.10
2023-02-16T02:00:36.787Z,10.60
2023-02-16T02:03:26.873Z,9.50
2023-02-16T02:05:55.766Z,9.10
2023-02-16T02:08:32.549Z,8.20
2023-02-16T02:11:28.083Z,7.70
2023-02-16T02:14:20.439Z,8.30
2023-02-16T02:17:06.056Z,6.90
2023-02-16T02:20:06.113Z,8.60
2023-02-16T02:23:28.982Z,8.70
2023-02-16T02:26:28.523Z,7.80
2023-02-16T02:29:35.482Z,8.50
2023-02-16T02:32:04.338Z,6.70
2023-02-16T02:34:57.109Z,8.70
2023-02-16T02:37:54.390Z,9.10
2023-02-16T02:40:44.614Z,9.30
2023-02-16T02:43:34.763Z,7.60
2023-02-16T02:46:25.796Z,10.20
2023-02-16T02:48:53.844Z,9.20
2023-02-16T02:51:32.187Z,9.90
2023-02-16T02:54:28.201Z,7.80
2023-02-16T02:57:23.852Z,10.50
2023-02-16T03:00:34.212Z,8.00
2023-02-16T03:03:23.358Z,7.10
2023-02-16T03:05:53.256Z,6.50
2023-02-16T03:08:24.318Z,8.10
2023-02-16T03:11:16.646Z,6.90
2023-02-16T03:13:46.933Z,13.90
2023-02-16T03:16:21.943Z,7.30
2023-02-16T03:19:09.653Z,10.00
2023-02-16T03:21:58.091Z,8.50
2023-02-16T03:24:49.338Z,7.50
2023-02-16T03:27:55.344Z,10.80
2023-02-16T03:30:24.462Z,7.00
2023-02-16T03:32:52.802Z,12.60
2023-02-16T03:35:24.783Z,10.10
2023-02-16T03:37:52.765Z,13.50
2023-02-16T03:40:30.096Z,9.40
2023-02-16T03:43:03.561Z,13.00
2023-02-16T03:45:32.719Z,14.90
2023-02-16T03:48:01.062Z,12.60
2023-02-16T03:50:29.588Z,13.50
2023-02-16T03:53:07.067Z,18.00
2023-02-16T03:55:39.666Z,14.90
2023-02-16T03:58:08.419Z,24.20
2023-02-16T04:00:37.242Z,18.20
2023-02-16T04:03:06.045Z,21.20
2023-02-16T04:05:35.038Z,20.60
2023-02-16T04:08:06.738Z,21.70
2023-02-16T04:10:39.523Z,17.60
2023-02-16T04:13:08.166Z,20.70
2023-02-16T04:15:36.439Z,17.30
2023-02-16T04:18:05.747Z,18.00
2023-02-16T04:20:34.748Z,19.10
2023-02-16T04:23:03.289Z,19.40
2023-02-16T04:25:32.481Z,13.50
2023-02-16T04:28:01.719Z,14.60
2023-02-16T04:30:30.818Z,16.90
2023-02-16T04:33:00.176Z,11.40
2023-02-16T04:35:28.408Z,18.00
2023-02-16T04:37:56.461Z,15.30
2023-02-16T04:40:24.529Z,12.50
2023-02-16T04:42:52.561Z,11.10
2023-02-16T04:45:20.674Z,17.80
2023-02-16T04:47:48.850Z,10.90
2023-02-16T04:50:17.250Z,15.00
2023-02-16T04:52:45.826Z,18.40
2023-02-16T04:55:14.195Z,18.50
2023-02-16T04:57:42.546Z,16.10
2023-02-16T05:00:14.561Z,11.90
2023-02-16T05:02:42.922Z,15.40
2023-02-16T05:05:11.201Z,15.80
2023-02-16T05:07:39.552Z,14.30
2023-02-16T05:10:11.749Z,17.80
2023-02-16T05:12:59.420Z,22.00
2023-02-16T05:15:31.655Z,19.50
2023-02-16T05:17:59.704Z,17.40
2023-02-16T05:20:47.878Z,15.60
2023-02-16T05:23:17.391Z,14.90
2023-02-16T05:25:45.458Z,16.10
2023-02-16T05:28:13.600Z,19.10
2023-02-16T05:30:41.745Z,14.10
2023-02-16T05:33:11.419Z,18.40
2023-02-16T05:35:39.625Z,18.40
2023-02-16T05:38:07.875Z,18.30
2023-02-16T05:40:36.386Z,28.80
2023-02-16T05:43:04.937Z,17.30
2023-02-16T05:45:34.748Z,20.00
2023-02-16T05:48:03.595Z,18.10
2023-02-16T05:50:32.111Z,24.20
2023-02-16T05:53:00.375Z,23.20
2023-02-16T05:55:28.525Z,21.60
2023-02-16T05:57:57.767Z,25.30
2023-02-16T06:00:26.001Z,27.40
2023-02-16T06:02:58.109Z,33.60
2023-02-16T06:05:26.459Z,26.80
2023-02-16T06:07:54.694Z,22.70
2023-02-16T06:10:23.993Z,30.10
2023-02-16T06:12:53.895Z,27.30
2023-02-16T06:17:52.316Z,26.60
2023-02-16T06:20:20.720Z,22.90
2023-02-16T06:22:49.162Z,21.80
2023-02-16T06:25:20.330Z,21.50
2023-02-16T06:30:19.394Z,21.20
2023-02-16T06:32:47.977Z,21.40
2023-02-16T06:35:16.452Z,23.60
2023-02-16T06:37:45.019Z,25.30
2023-02-16T06:40:17.602Z,27.40
2023-02-16T06:42:46.038Z,24.50
2023-02-16T06:45:14.408Z,27.60
2023-02-16T06:47:45.081Z,27.10
2023-02-16T06:50:14.683Z,25.40
2023-02-16T06:52:43.838Z,25.60
2023-02-16T06:55:12.895Z,25.30
2023-02-16T06:57:42.281Z,37.50
2023-02-16T07:00:10.920Z,30.40
2023-02-16T07:02:39.040Z,22.90
2023-02-16T07:05:07.421Z,19.40
2023-02-16T07:07:35.577Z,17.80
2023-02-16T07:10:03.919Z,22.00
2023-02-16T07:12:32.542Z,22.20
2023-02-16T07:15:04.350Z,23.40
2023-02-16T07:17:32.698Z,20.70
2023-02-16T07:20:00.767Z,24.10
2023-02-16T07:22:30.190Z,16.40
2023-02-16T07:25:00.759Z,18.10
2023-02-16T07:27:29.110Z,16.30
2023-02-16T07:29:57.800Z,17.20
2023-02-16T07:32:25.960Z,19.00
2023-02-16T07:34:57.893Z,16.10
2023-02-16T07:37:26.254Z,17.30
2023-02-16T07:39:54.297Z,22.20
2023-02-16T07:42:22.408Z,20.60
2023-02-16T07:44:52.754Z,21.50
2023-02-16T07:47:20.926Z,23.20
2023-02-16T07:49:49.206Z,22.80
2023-02-16T07:52:17.613Z,28.40
2023-02-16T07:54:47.045Z,23.50
2023-02-16T07:57:15.044Z,20.60
2023-02-16T07:59:43.357Z,21.00
2023-02-16T08:02:19.919Z,27.90
2023-02-16T08:04:48.656Z,31.80
2023-02-16T08:07:18.035Z,22.40
2023-02-16T08:09:46.589Z,25.20
2023-02-16T08:12:16.329Z,31.70
2023-02-16T08:14:46.683Z,22.00
2023-02-16T08:17:17.695Z,30.50
2023-02-16T08:19:46.628Z,25.60
2023-02-16T08:22:15.062Z,27.70
2023-02-16T08:24:44.153Z,21.40
2023-02-16T08:27:12.212Z,31.50
2023-02-16T08:29:42.107Z,24.10
2023-02-16T08:32:13.730Z,23.50
2023-02-16T08:34:43.411Z,23.00
2023-02-16T08:37:15.716Z,17.50
2023-02-16T08:39:43.815Z,22.20
2023-02-16T08:42:13.455Z,15.60
2023-02-16T08:44:42.626Z,18.80
2023-02-16T08:47:11.098Z,16.80
2023-02-16T08:49:39.582Z,17.90
2023-02-16T08:52:07.733Z,19.80
2023-02-16T08:54:36.442Z,28.30
2023-02-16T08:57:04.853Z,19.60
2023-02-16T08:59:35.057Z,16.40
2023-02-16T09:02:04.113Z,15.40
2023-02-16T09:04:33.802Z,20.00
2023-02-16T09:07:06.188Z,20.20
2023-02-16T09:09:34.476Z,19.40
2023-02-16T09:12:04.733Z,19.50
2023-02-16T09:14:34.047Z,15.20
2023-02-16T09:17:03.233Z,19.90
2023-02-16T09:19:33.476Z,20.30
2023-02-16T09:22:03.421Z,23.40
2023-02-16T09:24:34.262Z,20.70
2023-02-16T09:27:02.995Z,18.50
2023-02-16T09:29:31.820Z,18.10
2023-02-16T09:31:59.896Z,14.50
2023-02-16T09:34:28.132Z,21.60
2023-02-16T09:36:56.797Z,23.70
2023-02-16T09:39:24.988Z,19.70
2023-02-16T09:42:05.247Z,23.20
2023-02-16T09:44:42.282Z,33.40
2023-02-16T09:47:31.279Z,25.20
2023-02-16T09:50:00.779Z,19.50
2023-02-16T09:52:35.024Z,19.70
2023-02-16T09:55:07.690Z,17.50
2023-02-16T09:57:57.041Z,17.10
2023-02-16T10:00:35.917Z,20.00
2023-02-16T10:03:19.644Z,21.00
2023-02-16T10:05:52.082Z,23.40
2023-02-16T10:08:48.614Z,18.00
2023-02-16T10:11:57.030Z,18.40
2023-02-16T10:14:48.921Z,21.10
2023-02-16T10:17:32.443Z,18.40
2023-02-16T10:20:16.378Z,16.00
2023-02-16T10:23:03.338Z,21.00
2023-02-16T10:26:06.280Z,17.90
2023-02-16T10:28:48.694Z,15.90
2023-02-16T10:31:40.087Z,18.70
2023-02-16T10:34:27.178Z,20.10
2023-02-16T10:37:11.724Z,19.90
2023-02-16T10:39:47.017Z,18.50
2023-02-16T10:42:37.199Z,20.40
2023-02-16T10:45:14.351Z,17.40
2023-02-16T10:47:44.319Z,20.40
2023-02-16T10:50:38.995Z,16.30
2023-02-16T10:53:11.039Z,19.00
2023-02-16T10:55:39.183Z,18.30
2023-02-16T10:58:18.847Z,21.00
2023-02-16T11:01:34.025Z,23.10
2023-02-16T11:04:02.704Z,22.20
2023-02-16T11:06:30.964Z,19.00
2023-02-16T11:09:01.172Z,34.70
2023-02-16T11:11:39.829Z,27.10
2023-02-16T11:14:18.922Z,22.20
2023-02-16T11:16:47.268Z,21.90
2023-02-16T11:19:21.459Z,29.90
2023-02-16T11:21:52.145Z,21.70
2023-02-16T11:24:37.586Z,20.70
2023-02-16T11:27:15.998Z,27.50
2023-02-16T11:29:44.077Z,25.20
2023-02-16T11:32:13.150Z,24.10
2023-02-16T11:34:43.899Z,26.70
2023-02-16T11:37:31.115Z,19.10
2023-02-16T11:40:23.055Z,25.60
2023-02-16T11:42:53.911Z,19.00
2023-02-16T11:45:22.112Z,15.00
2023-02-16T11:48:24.558Z,28.10
2023-02-16T11:51:00.947Z,25.70
2023-02-16T11:53:32.737Z,28.50
2023-02-16T11:56:10.895Z,27.50
2023-02-16T11:58:39.340Z,17.50
2023-02-16T12:01:26.007Z,20.40
2023-02-16T12:03:59.862Z,16.90
2023-02-16T12:06:49.861Z,18.20
2023-02-16T12:09:42.722Z,20.00
2023-02-16T12:12:19.658Z,21.70
2023-02-16T12:14:56.451Z,15.40
2023-02-16T12:17:33.620Z,22.50
2023-02-16T12:20:29.853Z,19.80
2023-02-16T12:23:04.822Z,18.50
2023-02-16T12:25:43.622Z,43.10
2023-02-16T12:28:20.434Z,25.00
2023-02-16T12:31:35.065Z,17.70
2023-02-16T12:34:12.006Z,33.70
2023-02-16T12:36:54.475Z,19.10
2023-02-16T12:39:32.078Z,21.20
2023-02-16T12:42:31.615Z,17.40
2023-02-16T12:45:03.869Z,14.10
2023-02-16T12:47:36.642Z,23.40
2023-02-16T12:50:26.110Z,20.90
2023-02-16T12:53:20.368Z,18.80
2023-02-16T12:56:02.571Z,16.80
2023-02-16T12:58:33.986Z,17.00
2023-02-16T13:06:14.381Z,16.40
2023-02-16T13:08:52.035Z,19.90
2023-02-16T13:11:48.572Z,17.30
2023-02-16T18:18:20.945Z,24.40
2023-02-16T18:20:48.985Z,32.90
2023-02-16T18:23:17.320Z,33.80
2023-02-16T18:25:45.906Z,30.40
2023-02-16T18:28:18.662Z,42.50
2023-02-16T18:30:50.816Z,25.30
2023-02-16T18:33:23.270Z,44.00
2023-02-16T18:35:52.562Z,67.70
2023-02-16T18:38:22.237Z,51.40
2023-02-16T18:40:52.571Z,55.60
2023-02-16T18:43:21.957Z,43.00
2023-02-16T18:45:50.405Z,36.60
2023-02-16T18:48:19.961Z,38.90
2023-02-16T18:50:48.285Z,45.30
2023-02-16T18:53:17.238Z,35.50
2023-02-16T18:55:45.717Z,31.80
2023-02-16T18:58:14.390Z,31.60
2023-02-16T19:00:45.963Z,36.50
2023-02-16T19:03:14.560Z,30.80
2023-02-16T19:05:43.543Z,29.30
2023-02-16T19:08:12.009Z,32.40
2023-02-16T19:10:42.651Z,35.50
2023-02-16T19:13:11.484Z,34.50
2023-02-16T19:15:40.050Z,41.00
2023-02-16T19:18:09.132Z,33.60
2023-02-16T19:20:40.876Z,37.70
2023-02-16T19:23:09.355Z,33.30
2023-02-16T19:25:37.842Z,31.30
2023-02-16T19:28:06.222Z,42.40
2023-02-16T19:30:35.594Z,31.20
2023-02-16T19:33:04.720Z,31.90
2023-02-16T19:35:33.884Z,28.30
2023-02-16T19:38:04.252Z,36.00
2023-02-16T19:40:34.576Z,24.70
2023-02-16T19:43:04.536Z,22.70
2023-02-16T19:45:37.575Z,32.10
2023-02-16T19:48:10.712Z,28.80
2023-02-16T19:50:39.657Z,27.70
2023-02-16T19:53:08.040Z,26.10
2023-02-16T19:55:40.422Z,24.40
2023-02-16T19:58:09.099Z,33.00
2023-02-16T20:00:38.712Z,32.80
2023-02-16T20:03:07.232Z,31.40
2023-02-16T20:05:36.242Z,34.50
2023-02-16T20:08:04.665Z,33.80
2023-02-16T20:10:34.019Z,36.90
2023-02-16T20:13:02.569Z,32.20
2023-02-16T20:15:31.146Z,32.30
2023-02-16T20:18:00.753Z,30.30
2023-02-16T20:20:35.739Z,32.60
2023-02-16T20:23:04.323Z,29.60
2023-02-16T20:25:33.164Z,29.70
2023-02-16T20:28:01.852Z,31.30
2023-02-16T20:30:31.002Z,25.30
2023-02-16T20:32:59.945Z,32.00
2023-02-16T20:35:28.310Z,28.20
2023-02-16T20:37:58.658Z,35.60
2023-02-16T20:40:27.050Z,43.60
2023-02-16T20:42:55.617Z,31.10
2023-02-16T20:45:24.113Z,34.20
2023-02-16T20:47:53.097Z,36.20
2023-02-16T20:50:21.779Z,50.20
2023-02-16T20:52:50.160Z,40.90
2023-02-16T20:55:19.052Z,48.60
2023-02-16T20:57:47.637Z,50.90
2023-02-16T21:00:19.094Z,32.50
2023-02-16T21:02:48.016Z,34.80
2023-02-16T21:05:16.568Z,45.70
2023-02-16T21:07:45.401Z,42.40
2023-02-16T21:10:16.546Z,39.40
2023-02-16T21:12:45.090Z,38.80
2023-02-16T21:15:13.270Z,33.50
2023-02-16T21:17:41.786Z,39.20
2023-02-16T21:20:11.160Z,44.00
2023-02-16T21:22:39.562Z,41.20
2023-02-16T21:25:09.250Z,36.30
2023-02-16T21:27:38.146Z,42.40
2023-02-16T21:30:07.577Z,36.20
2023-02-16T21:32:36.352Z,52.70
2023-02-16T21:35:05.817Z,54.20
2023-02-16T21:37:35.275Z,45.80
2023-02-16T21:40:22.261Z,41.40
2023-02-16T21:42:51.869Z,46.50
2023-02-16T21:48:07.986Z,46.30
2023-02-16T21:50:40.668Z,53.20
2023-02-16T21:53:09.152Z,41.50
2023-02-16T21:55:56.782Z,44.50
2023-02-16T21:58:26.988Z,40.90
2023-02-16T22:00:56.649Z,40.30
2023-02-16T22:03:24.995Z,39.30
2023-02-16T22:05:53.242Z,70.70
2023-02-16T22:08:21.553Z,64.60
2023-02-16T22:10:49.645Z,64.60
2023-02-16T22:13:18.308Z,73.90
2023-02-16T22:15:46.590Z,85.90
2023-02-16T22:18:14.885Z,94.80
2023-02-16T22:20:43.249Z,89.30
2023-02-16T22:23:12.551Z,98.80
2023-02-16T22:25:40.927Z,115.50
2023-02-16T22:28:34.504Z,51.70
2023-02-16T22:31:07.979Z,52.40
2023-02-16T22:33:39.255Z,56.90
2023-02-16T22:36:10.133Z,47.70
2023-02-16T22:38:41.913Z,51.80
2023-02-16T22:41:10.738Z,44.40
2023-02-16T22:43:39.273Z,73.90
2023-02-16T22:46:09.245Z,77.20
2023-02-16T22:51:07.503Z,53.80
2023-02-16T22:53:35.570Z,72.30
2023-02-16T22:56:06.916Z,85.80
2023-02-16T22:58:36.880Z,72.80
2023-02-16T23:01:15.238Z,72.50
2023-02-16T23:03:48.429Z,46.20
2023-02-16T23:06:18.310Z,55.80
2023-02-16T23:08:46.942Z,59.70
2023-02-16T23:11:15.694Z,55.00
2023-02-16T23:13:45.133Z,58.10
2023-02-16T23:16:16.422Z,73.70
2023-02-16T23:18:44.924Z,75.10
2023-02-16T23:21:14.248Z,70.60
2023-02-16T23:23:42.603Z,73.20
2023-02-16T23:26:12.219Z,45.10
2023-02-16T23:28:40.909Z,43.50
2023-02-16T23:31:09.193Z,41.60
2023-02-16T23:33:37.231Z,37.00
2023-02-16T23:36:06.154Z,47.70
2023-02-16T23:38:37.595Z,57.50
2023-02-16T23:41:11.402Z,52.30
2023-02-16T23:43:39.783Z,63.80
2023-02-16T23:46:08.308Z,67.40
2023-02-16T23:48:38.693Z,59.60
2023-02-16T23:51:07.175Z,78.30
2023-02-16T23:53:35.862Z,55.40
2023-02-16T23:56:08.778Z,51.60
2023-02-16T23:58:41.325Z,42.50
